createdAt,value
2022-10-19T00:00:44.610Z,11.25
2022-10-19T00:02:46.173Z,11.25
2022-10-19T00:04:47.621Z,11.26
2022-10-19T00:06:49.069Z,11.28
2022-10-19T00:08:50.484Z,11.30
2022-10-19T00:10:52.105Z,11.32
2022-10-19T00:12:53.764Z,11.35
2022-10-19T00:14:55.307Z,11.37
2022-10-19T00:16:58.110Z,11.38
2022-10-19T00:19:01.390Z,11.40
2022-10-19T00:21:09.234Z,11.43
2022-10-19T00:23:10.694Z,11.44
2022-10-19T00:25:12.137Z,11.45
2022-10-19T00:27:13.623Z,11.45
2022-10-19T00:29:16.127Z,11.45
2022-10-19T00:31:18.089Z,11.44
2022-10-19T00:33:22.305Z,11.44
2022-10-19T00:35:23.746Z,11.44
2022-10-19T00:37:25.183Z,11.44
2022-10-19T00:39:26.654Z,11.44
2022-10-19T00:41:31.349Z,11.45
2022-10-19T00:43:32.834Z,11.45
2022-10-19T00:45:34.271Z,11.47
2022-10-19T00:47:35.722Z,11.48
2022-10-19T00:49:42.521Z,11.48
2022-10-19T00:51:47.756Z,11.48
2022-10-19T00:53:49.279Z,11.47
2022-10-19T00:55:50.967Z,11.46
2022-10-19T00:57:52.595Z,11.46
2022-10-19T00:59:54.983Z,11.45
2022-10-19T01:01:56.573Z,11.47
2022-10-19T01:03:58.529Z,11.46
2022-10-19T01:06:01.076Z,11.49
2022-10-19T01:08:02.934Z,11.48
2022-10-19T01:10:04.989Z,11.50
2022-10-19T01:12:09.497Z,11.48
2022-10-19T01:14:32.921Z,11.45
2022-10-19T01:16:51.428Z,11.46
2022-10-19T01:19:23.990Z,11.46
2022-10-19T01:21:29.134Z,11.44
2022-10-19T01:23:33.447Z,11.40
2022-10-19T01:25:59.316Z,11.40
2022-10-19T01:28:19.118Z,11.41
2022-10-19T01:30:26.978Z,11.40
2022-10-19T01:32:55.589Z,11.39
2022-10-19T01:35:26.078Z,11.43
2022-10-19T01:37:35.790Z,11.46
2022-10-19T01:39:52.537Z,11.49
2022-10-19T01:42:06.209Z,11.48
2022-10-19T01:44:27.972Z,11.44
2022-10-19T01:46:38.114Z,11.45
2022-10-19T01:48:45.346Z,11.48
2022-10-19T01:50:58.845Z,11.49
2022-10-19T01:53:00.873Z,11.50
2022-10-19T01:55:03.641Z,11.48
2022-10-19T01:57:08.597Z,11.48
2022-10-19T01:59:12.273Z,11.47
2022-10-19T02:01:19.421Z,11.46
2022-10-19T02:03:21.463Z,11.47
2022-10-19T02:05:28.366Z,11.50
2022-10-19T02:07:30.577Z,11.52
2022-10-19T02:09:32.057Z,11.53
2022-10-19T02:11:35.576Z,11.53
2022-10-19T02:13:39.388Z,11.53
2022-10-19T02:15:46.639Z,11.50
2022-10-19T02:17:52.039Z,11.50
2022-10-19T02:19:54.235Z,11.47
2022-10-19T02:21:56.440Z,11.48
2022-10-19T02:23:57.856Z,11.47
2022-10-19T02:25:59.628Z,11.48
2022-10-19T02:28:02.836Z,11.46
2022-10-19T02:30:04.761Z,11.44
2022-10-19T02:32:07.283Z,11.43
2022-10-19T02:34:09.694Z,11.44
2022-10-19T02:36:11.297Z,11.47
2022-10-19T02:38:19.719Z,11.51
2022-10-19T02:40:22.083Z,11.50
2022-10-19T02:42:36.349Z,11.50
2022-10-19T02:45:07.436Z,11.49
2022-10-19T02:47:17.396Z,11.52
2022-10-19T02:49:19.636Z,11.52
2022-10-19T02:51:39.470Z,11.52
2022-10-19T02:53:40.880Z,11.49
2022-10-19T02:55:42.803Z,11.49
2022-10-19T02:57:44.297Z,11.51
2022-10-19T02:59:46.432Z,11.52
2022-10-19T03:01:48.098Z,11.50
2022-10-19T03:03:49.553Z,11.47
2022-10-19T03:05:50.952Z,11.46
2022-10-19T03:07:52.415Z,11.45
2022-10-19T03:09:54.208Z,11.45
2022-10-19T03:11:56.166Z,11.46
2022-10-19T03:13:57.624Z,11.46
2022-10-19T03:16:06.272Z,11.48
2022-10-19T03:18:07.607Z,11.43
2022-10-19T03:20:10.171Z,11.46
2022-10-19T03:22:13.717Z,11.46
2022-10-19T03:24:15.322Z,11.45
2022-10-19T03:26:17.601Z,11.46
2022-10-19T03:28:19.034Z,11.45
2022-10-19T03:30:20.454Z,11.45
2022-10-19T03:32:21.911Z,11.42
2022-10-19T03:34:23.406Z,11.41
2022-10-19T03:36:32.012Z,11.40
2022-10-19T03:38:33.433Z,11.38
2022-10-19T03:40:34.906Z,11.37
2022-10-19T03:42:36.450Z,11.40
2022-10-19T03:44:37.899Z,11.39
2022-10-19T03:46:40.191Z,11.39
2022-10-19T03:48:42.197Z,11.40
2022-10-19T03:50:43.650Z,11.40
2022-10-19T03:52:45.129Z,11.41
2022-10-19T03:54:49.551Z,11.42
2022-10-19T03:56:50.977Z,11.43
2022-10-19T03:58:54.074Z,11.43
2022-10-19T04:00:55.584Z,11.46
2022-10-19T04:02:57.025Z,11.48
2022-10-19T04:04:58.509Z,11.48
2022-10-19T04:07:00.246Z,11.47
2022-10-19T04:09:03.619Z,11.49
2022-10-19T04:11:07.624Z,11.49
2022-10-19T04:13:09.139Z,11.49
2022-10-19T04:15:10.770Z,11.47
2022-10-19T04:17:12.205Z,11.47
2022-10-19T04:19:15.893Z,11.49
2022-10-19T04:21:38.075Z,11.49
2022-10-19T04:23:39.505Z,11.46
2022-10-19T04:25:40.946Z,11.46
2022-10-19T04:27:49.890Z,11.43
2022-10-19T04:29:51.347Z,11.40
2022-10-19T04:31:52.991Z,11.42
2022-10-19T04:33:55.112Z,11.43
2022-10-19T04:36:00.226Z,11.46
2022-10-19T04:38:01.737Z,11.47
2022-10-19T04:40:04.636Z,11.50
2022-10-19T04:42:06.131Z,11.50
2022-10-19T04:44:08.962Z,11.51
2022-10-19T04:46:13.930Z,11.52
2022-10-19T04:48:15.414Z,11.51
2022-10-19T04:50:17.057Z,11.51
2022-10-19T04:52:18.472Z,11.52
2022-10-19T04:54:19.886Z,11.53
2022-10-19T04:56:23.629Z,11.55
2022-10-19T04:58:25.214Z,11.54
2022-10-19T05:00:26.617Z,11.55
2022-10-19T05:02:28.056Z,11.54
2022-10-19T05:04:29.536Z,11.52
2022-10-19T05:06:31.959Z,11.53
2022-10-19T05:08:33.659Z,11.54
2022-10-19T05:10:36.397Z,11.55
2022-10-19T05:12:37.861Z,11.54
2022-10-19T05:14:42.008Z,11.54
2022-10-19T05:16:44.427Z,11.54
2022-10-19T05:19:04.175Z,11.54
2022-10-19T05:21:08.269Z,11.56
2022-10-19T05:23:09.732Z,11.57
2022-10-19T05:25:11.233Z,11.56
2022-10-19T05:27:12.741Z,11.57
2022-10-19T05:29:14.651Z,11.58
2022-10-19T05:31:18.359Z,11.60
2022-10-19T05:33:19.797Z,11.61
2022-10-19T05:35:22.622Z,11.62
2022-10-19T05:37:25.687Z,11.61
2022-10-19T05:39:27.290Z,11.62
2022-10-19T05:41:28.841Z,11.63
2022-10-19T05:43:30.293Z,11.64
2022-10-19T05:45:31.758Z,11.62
2022-10-19T05:47:34.246Z,11.62
2022-10-19T05:49:35.968Z,11.64
2022-10-19T05:51:37.935Z,11.64
2022-10-19T05:53:39.944Z,11.63
2022-10-19T05:55:41.485Z,11.64
2022-10-19T05:57:42.966Z,11.66
2022-10-19T05:59:44.432Z,11.67
2022-10-19T06:01:46.780Z,11.68
2022-10-19T06:03:52.628Z,11.69
2022-10-19T06:05:55.208Z,11.69
2022-10-19T06:07:56.743Z,11.70
2022-10-19T06:09:58.211Z,11.68
2022-10-19T06:11:59.659Z,11.68
2022-10-19T06:14:02.758Z,11.70
2022-10-19T06:16:05.583Z,11.70
2022-10-19T06:18:08.310Z,11.70
2022-10-19T06:20:10.170Z,11.71
2022-10-19T06:22:11.624Z,11.71
2022-10-19T06:24:13.184Z,11.72
2022-10-19T06:26:15.114Z,11.75
2022-10-19T06:28:16.590Z,11.75
2022-10-19T06:30:18.057Z,11.77
2022-10-19T06:32:19.884Z,11.79
2022-10-19T06:34:21.442Z,11.81
2022-10-19T06:36:25.362Z,11.81
2022-10-19T06:38:26.842Z,11.83
2022-10-19T06:40:28.317Z,11.83
2022-10-19T06:42:29.833Z,11.84
2022-10-19T06:44:31.260Z,11.85
2022-10-19T06:46:33.847Z,11.85
2022-10-19T06:48:35.591Z,11.84
2022-10-19T06:50:37.036Z,11.85
2022-10-19T06:52:40.712Z,11.83
2022-10-19T06:54:42.144Z,11.85
2022-10-19T06:56:43.623Z,11.85
2022-10-19T06:58:45.590Z,11.86
2022-10-19T07:00:57.685Z,11.88
2022-10-19T07:02:59.550Z,11.89
2022-10-19T07:05:06.073Z,11.90
2022-10-19T07:07:08.696Z,11.91
2022-10-19T07:09:10.177Z,11.91
2022-10-19T07:11:15.945Z,11.94
2022-10-19T07:13:17.430Z,11.94
2022-10-19T07:15:18.889Z,11.97
2022-10-19T07:17:20.318Z,11.99
2022-10-19T07:19:22.504Z,12.00
2022-10-19T07:21:24.003Z,12.00
2022-10-19T07:23:27.119Z,12.04
2022-10-19T07:25:30.111Z,12.04
2022-10-19T07:27:37.395Z,12.07
2022-10-19T07:29:39.210Z,12.10
2022-10-19T07:31:41.582Z,12.13
2022-10-19T07:33:43.098Z,12.14
2022-10-19T07:35:44.557Z,12.14
2022-10-19T07:37:46.004Z,12.15
2022-10-19T07:39:47.411Z,12.16
2022-10-19T07:41:48.883Z,12.19
2022-10-19T07:43:51.682Z,12.21
2022-10-19T07:46:01.574Z,12.23
2022-10-19T07:48:02.997Z,12.27
2022-10-19T07:50:04.832Z,12.30
2022-10-19T07:52:06.271Z,12.32
2022-10-19T07:54:08.493Z,12.31
2022-10-19T07:56:15.745Z,12.32
2022-10-19T07:58:17.183Z,12.33
2022-10-19T08:00:18.629Z,12.33
2022-10-19T08:02:20.364Z,12.35
2022-10-19T08:06:43.327Z,12.44
2022-10-19T08:08:46.404Z,12.49
2022-10-19T08:10:47.871Z,12.51
2022-10-19T08:12:49.299Z,12.53
2022-10-19T08:14:50.733Z,12.57
2022-10-19T08:16:52.145Z,12.61
2022-10-19T08:18:58.025Z,12.62
2022-10-19T08:21:02.434Z,12.65
2022-10-19T08:23:03.896Z,12.67
2022-10-19T08:25:06.158Z,12.69
2022-10-19T08:27:07.560Z,12.69
2022-10-19T08:29:15.297Z,12.70
2022-10-19T08:31:19.670Z,12.69
2022-10-19T08:33:21.121Z,12.70
2022-10-19T08:35:22.596Z,12.70
2022-10-19T08:37:40.372Z,12.69
2022-10-19T08:39:45.404Z,12.69
2022-10-19T08:41:49.741Z,12.69
2022-10-19T08:44:12.749Z,12.68
2022-10-19T08:46:23.497Z,12.69
2022-10-19T08:48:29.308Z,12.67
2022-10-19T08:50:39.438Z,12.67
2022-10-19T08:52:43.229Z,12.69
2022-10-19T08:54:55.480Z,12.73
2022-10-19T08:57:21.053Z,12.78
2022-10-19T08:59:44.934Z,12.81
2022-10-19T09:02:10.520Z,12.85
2022-10-19T09:04:22.138Z,12.88
2022-10-19T09:06:27.247Z,12.93
2022-10-19T09:08:28.980Z,12.98
2022-10-19T09:10:35.682Z,13.04
2022-10-19T09:12:55.129Z,13.10
2022-10-19T09:15:03.773Z,13.16
2022-10-19T09:17:17.036Z,13.19
2022-10-19T09:19:25.542Z,13.22
2022-10-19T09:21:46.092Z,13.26
2022-10-19T09:23:55.316Z,13.33
2022-10-19T09:25:57.760Z,13.39
2022-10-19T09:28:16.818Z,13.43
2022-10-19T09:30:21.136Z,13.41
2022-10-19T09:32:29.230Z,13.40
2022-10-19T09:34:36.580Z,13.43
2022-10-19T09:36:50.439Z,13.47
2022-10-19T09:38:52.381Z,13.48
2022-10-19T09:40:53.836Z,13.54
2022-10-19T09:42:59.511Z,13.61
2022-10-19T09:45:11.833Z,13.63
2022-10-19T09:47:33.314Z,13.62
2022-10-19T09:49:43.445Z,13.58
2022-10-19T09:51:50.486Z,13.59
2022-10-19T09:53:54.530Z,13.62
2022-10-19T09:56:07.780Z,13.65
2022-10-19T09:58:17.119Z,13.68
2022-10-19T10:00:21.289Z,13.71
2022-10-19T10:02:30.192Z,13.75
2022-10-19T10:04:31.876Z,13.72
2022-10-19T10:06:34.841Z,13.74
2022-10-19T10:08:39.433Z,13.76
2022-10-19T10:10:49.102Z,13.73
2022-10-19T10:12:52.900Z,13.73
2022-10-19T10:14:56.334Z,13.72
2022-10-19T10:17:03.400Z,13.73
2022-10-19T10:19:11.757Z,13.70
2022-10-19T10:21:33.664Z,13.71
2022-10-19T10:23:36.640Z,13.78
2022-10-19T10:25:38.347Z,13.91
2022-10-19T10:27:40.263Z,14.06
2022-10-19T10:32:20.201Z,14.18
2022-10-19T10:34:58.353Z,14.26
2022-10-19T10:37:04.424Z,14.26
2022-10-19T10:39:08.341Z,14.23
2022-10-19T10:41:12.057Z,14.23
2022-10-19T10:43:18.044Z,14.31
2022-10-19T10:45:34.560Z,14.31
2022-10-19T10:47:39.301Z,14.30
2022-10-19T10:49:42.644Z,14.29
2022-10-19T10:51:49.276Z,14.65
2022-10-19T10:54:16.411Z,15.45
2022-10-19T10:56:29.742Z,16.34
2022-10-19T10:58:44.335Z,17.31
2022-10-19T11:00:48.045Z,18.16
2022-10-19T11:03:26.547Z,18.93
2022-10-19T11:05:37.483Z,19.70
2022-10-19T11:07:44.909Z,20.13
2022-10-19T11:10:03.360Z,20.77
2022-10-19T11:12:09.061Z,20.92
2022-10-19T11:14:41.498Z,20.37
2022-10-19T11:16:45.989Z,19.64
2022-10-19T11:18:56.485Z,19.10
2022-10-19T11:21:13.002Z,18.92
2022-10-19T11:23:26.908Z,19.27
2022-10-19T11:25:43.893Z,19.07
2022-10-19T11:28:17.272Z,19.42
2022-10-19T11:30:20.790Z,20.07
2022-10-19T11:32:25.216Z,20.50
2022-10-19T11:34:32.760Z,20.51
2022-10-19T11:36:50.025Z,20.14
2022-10-19T11:39:21.751Z,19.58
2022-10-19T11:41:37.590Z,19.08
2022-10-19T11:43:50.339Z,18.69
2022-10-19T11:46:13.691Z,18.35
2022-10-19T11:48:30.850Z,18.00
2022-10-19T11:51:04.123Z,17.53
2022-10-19T11:53:48.537Z,17.05
2022-10-19T11:56:07.420Z,16.96
2022-10-19T11:58:35.296Z,16.94
2022-10-19T12:00:50.326Z,16.99
2022-10-19T12:03:18.031Z,17.07
2022-10-19T12:06:00.857Z,17.03
2022-10-19T12:08:23.283Z,17.04
2022-10-19T12:10:32.654Z,16.92
2022-10-19T12:12:38.894Z,16.49
2022-10-19T12:14:43.756Z,16.23
2022-10-19T12:16:53.368Z,16.07
2022-10-19T12:19:00.489Z,16.14
2022-10-19T12:21:14.682Z,16.23
2022-10-19T12:23:38.414Z,16.28
2022-10-19T12:25:43.849Z,16.25
2022-10-19T12:27:47.719Z,16.19
2022-10-19T12:29:50.013Z,16.00
2022-10-19T12:31:53.760Z,15.81
2022-10-19T12:34:13.161Z,15.60
2022-10-19T12:36:32.674Z,15.48
2022-10-19T12:39:00.210Z,15.47
2022-10-19T12:41:27.352Z,15.63
2022-10-19T12:43:43.437Z,15.60
2022-10-19T12:46:22.226Z,15.63
2022-10-19T12:48:24.663Z,15.61
2022-10-19T12:50:47.855Z,15.51
2022-10-19T12:52:52.233Z,15.51
2022-10-19T12:54:53.699Z,15.45
2022-10-19T12:56:58.949Z,15.21
2022-10-19T12:59:01.684Z,15.12
2022-10-19T13:01:05.954Z,15.02
2022-10-19T13:03:13.447Z,15.03
2022-10-19T13:05:22.987Z,15.10
2022-10-19T13:07:26.590Z,15.10
2022-10-19T13:09:38.659Z,15.07
2022-10-19T13:12:19.389Z,15.09
2022-10-19T13:14:49.896Z,15.16
2022-10-19T13:17:00.285Z,15.19
2022-10-19T13:19:13.975Z,15.15
2022-10-19T13:21:53.917Z,14.97
2022-10-19T13:24:23.946Z,14.85
2022-10-19T13:26:33.858Z,14.74
2022-10-19T13:28:37.444Z,14.66
2022-10-19T13:30:42.253Z,14.60
2022-10-19T13:32:45.112Z,14.48
2022-10-19T13:34:47.233Z,14.49
2022-10-19T13:37:03.099Z,14.53
2022-10-19T13:39:10.158Z,14.50
2022-10-19T13:41:16.183Z,14.45
2022-10-19T13:43:21.067Z,14.42
2022-10-19T13:45:24.587Z,14.41
2022-10-19T13:47:32.827Z,14.52
2022-10-19T13:49:51.974Z,14.58
2022-10-19T13:52:18.474Z,14.54
2022-10-19T13:54:41.866Z,14.51
2022-10-19T13:56:49.454Z,14.52
2022-10-19T13:59:10.065Z,14.60
2022-10-19T14:01:47.058Z,14.57
2022-10-19T14:04:00.550Z,14.56
2022-10-19T14:06:36.185Z,14.53
2022-10-19T14:08:56.469Z,14.49
2022-10-19T14:11:12.386Z,14.43
2022-10-19T14:13:15.482Z,14.43
2022-10-19T14:15:27.873Z,14.39
2022-10-19T14:17:34.171Z,14.36
2022-10-19T14:20:02.626Z,14.31
2022-10-19T14:22:37.936Z,14.28
2022-10-19T14:24:39.633Z,14.28
2022-10-19T14:26:41.265Z,14.36
2022-10-19T14:28:43.535Z,14.40
2022-10-19T14:30:53.804Z,14.38
2022-10-19T14:32:59.394Z,14.33
2022-10-19T14:35:16.045Z,14.32
2022-10-19T14:37:21.221Z,14.37
2022-10-19T14:39:30.611Z,14.33
2022-10-19T14:41:36.157Z,14.35
2022-10-19T14:43:37.875Z,14.34
2022-10-19T14:45:39.337Z,14.40
2022-10-19T14:47:53.190Z,14.43
2022-10-19T14:49:54.672Z,14.42
2022-10-19T14:52:03.128Z,14.42
2022-10-19T14:54:12.023Z,14.33
2022-10-19T14:56:48.608Z,14.28
2022-10-19T14:59:07.524Z,14.29
2022-10-19T15:01:10.447Z,14.24
2022-10-19T15:03:20.557Z,14.14
2022-10-19T15:05:26.255Z,14.05
2022-10-19T15:07:36.470Z,14.03
2022-10-19T15:09:48.354Z,13.96
2022-10-19T15:11:51.080Z,13.91
2022-10-19T15:14:02.380Z,13.84
2022-10-19T15:16:04.008Z,13.77
2022-10-19T15:18:06.918Z,13.76
2022-10-19T15:20:24.582Z,13.79
2022-10-19T15:22:32.327Z,13.79
2022-10-19T15:24:34.214Z,13.77
2022-10-19T15:26:35.747Z,13.73
2022-10-19T15:28:41.561Z,13.75
2022-10-19T15:30:43.371Z,13.73
2022-10-19T15:32:47.841Z,13.70
2022-10-19T15:34:49.347Z,13.66
2022-10-19T15:36:58.978Z,13.60
2022-10-19T15:39:18.097Z,13.52
2022-10-19T15:41:34.817Z,13.46
2022-10-19T15:43:46.031Z,13.44
2022-10-19T15:45:47.506Z,13.41
2022-10-19T15:48:16.183Z,13.37
2022-10-19T15:50:45.112Z,13.29
2022-10-19T15:52:46.520Z,13.24
2022-10-19T15:54:49.434Z,13.22
2022-10-19T15:56:52.261Z,13.19
2022-10-19T15:58:56.456Z,13.15
2022-10-19T16:00:57.877Z,13.03
2022-10-19T16:02:59.601Z,12.97
2022-10-19T16:05:01.048Z,12.92
2022-10-19T16:07:02.570Z,12.82
2022-10-19T16:09:04.458Z,12.80
2022-10-19T16:11:06.010Z,12.77
2022-10-19T16:13:07.457Z,12.74
2022-10-19T16:15:13.008Z,12.73
2022-10-19T16:17:15.198Z,12.68
2022-10-19T16:19:16.684Z,12.64
2022-10-19T16:21:20.450Z,12.63
2022-10-19T16:23:22.010Z,12.59
2022-10-19T16:25:23.664Z,12.55
2022-10-19T16:27:25.115Z,12.49
2022-10-19T16:29:28.919Z,12.44
2022-10-19T16:31:31.568Z,12.36
2022-10-19T16:33:33.408Z,12.31
2022-10-19T16:35:37.289Z,12.24
2022-10-19T16:37:38.761Z,12.13
2022-10-19T16:39:40.227Z,12.02
2022-10-19T16:41:41.657Z,11.94
2022-10-19T16:43:43.520Z,11.89
2022-10-19T16:45:45.042Z,11.84
2022-10-19T16:47:50.130Z,11.81
2022-10-19T16:50:00.041Z,11.74
2022-10-19T16:52:01.739Z,11.70
2022-10-19T16:54:05.771Z,11.65
2022-10-19T16:56:12.655Z,11.61
2022-10-19T16:58:14.122Z,11.56
2022-10-19T17:00:15.643Z,11.52
2022-10-19T17:02:17.476Z,11.48
2022-10-19T17:04:19.019Z,11.43
2022-10-19T17:06:21.340Z,11.37
2022-10-19T17:08:36.470Z,11.34
2022-10-19T17:10:38.712Z,11.27
2022-10-19T17:12:40.829Z,11.23
2022-10-19T17:14:42.464Z,11.19
2022-10-19T17:16:43.993Z,11.14
2022-10-19T17:18:45.989Z,11.09
2022-10-19T17:20:47.416Z,11.05
2022-10-19T17:22:51.828Z,11.02
2022-10-19T17:24:55.399Z,10.96
2022-10-19T17:26:57.106Z,10.91
2022-10-19T17:29:00.066Z,10.87
2022-10-19T17:31:07.274Z,10.82
2022-10-19T17:33:08.711Z,10.78
2022-10-19T17:35:10.272Z,10.73
2022-10-19T17:37:11.982Z,10.68
2022-10-19T17:39:25.542Z,10.63
2022-10-19T17:41:31.065Z,10.59
2022-10-19T17:43:32.920Z,10.55
2022-10-19T17:45:34.656Z,10.49
2022-10-19T17:47:36.371Z,10.46
2022-10-19T17:49:38.343Z,10.43
2022-10-19T17:51:40.523Z,10.40
2022-10-19T17:53:43.780Z,10.36
2022-10-19T17:55:45.255Z,10.32
2022-10-19T17:57:46.787Z,10.30
2022-10-19T17:59:52.817Z,10.28
2022-10-19T18:01:54.789Z,10.25
2022-10-19T18:03:56.905Z,10.23
2022-10-19T18:06:04.610Z,10.21
2022-10-19T18:08:08.388Z,10.17
2022-10-19T18:10:10.208Z,10.15
2022-10-19T18:12:13.339Z,10.13
2022-10-19T18:14:14.868Z,10.11
2022-10-19T18:16:24.312Z,10.13
2022-10-19T18:18:26.103Z,10.12
2022-10-19T18:20:27.541Z,10.11
2022-10-19T18:22:29.053Z,10.13
2022-10-19T18:24:30.562Z,10.08
2022-10-19T18:26:34.152Z,10.09
2022-10-19T18:28:35.813Z,10.10
2022-10-19T18:30:38.444Z,10.09
2022-10-19T18:32:39.962Z,10.07
2022-10-19T18:34:41.449Z,10.07
2022-10-19T18:36:43.042Z,10.08
2022-10-19T18:38:44.790Z,10.07
2022-10-19T18:40:46.269Z,10.05
2022-10-19T18:42:47.756Z,10.01
2022-10-19T18:44:49.295Z,9.98
2022-10-19T18:46:50.766Z,9.97
2022-10-19T18:48:53.575Z,9.94
2022-10-19T18:50:55.967Z,9.88
2022-10-19T18:52:57.388Z,9.88
2022-10-19T18:54:58.796Z,9.89
2022-10-19T18:57:00.322Z,9.89
2022-10-19T18:59:02.208Z,9.89
2022-10-19T19:01:10.812Z,9.90
2022-10-19T19:03:12.312Z,9.81
2022-10-19T19:05:13.775Z,9.87
2022-10-19T19:07:15.227Z,9.87
2022-10-19T19:09:18.780Z,9.87
2022-10-19T19:11:25.894Z,9.86
2022-10-19T19:13:27.747Z,9.86
2022-10-19T19:15:29.182Z,9.84
2022-10-19T19:17:30.639Z,9.82
2022-10-19T19:19:32.228Z,9.80
2022-10-19T19:21:35.590Z,9.79
2022-10-19T19:23:37.015Z,9.74
2022-10-19T19:25:40.312Z,9.75
2022-10-19T19:27:41.726Z,9.73
2022-10-19T19:29:43.283Z,9.73
2022-10-19T19:31:44.946Z,9.70
2022-10-19T19:33:47.469Z,9.70
2022-10-19T19:35:50.341Z,9.67
2022-10-19T19:37:51.758Z,9.66
2022-10-19T19:39:53.202Z,9.67
2022-10-19T19:41:54.658Z,9.66
2022-10-19T19:43:57.907Z,9.65
2022-10-19T19:46:04.613Z,9.66
2022-10-19T19:48:10.434Z,9.65
2022-10-19T19:50:11.847Z,9.64
2022-10-19T19:52:13.276Z,9.64
2022-10-19T19:54:15.107Z,9.62
2022-10-19T19:56:17.851Z,9.59
2022-10-19T19:58:19.283Z,9.55
2022-10-19T20:00:22.444Z,9.54
2022-10-19T20:02:23.872Z,9.53
2022-10-19T20:04:25.290Z,9.51
2022-10-19T20:06:26.858Z,9.50
2022-10-19T20:08:28.360Z,9.49
2022-10-19T20:10:29.838Z,9.50
2022-10-19T20:12:31.306Z,9.49
2022-10-19T20:14:32.729Z,9.51
2022-10-19T20:16:34.326Z,9.48
2022-10-19T20:18:36.127Z,9.47
2022-10-19T20:20:40.111Z,9.46
2022-10-19T20:22:46.447Z,9.43
2022-10-19T20:24:47.869Z,9.40
2022-10-19T20:26:49.286Z,9.38
2022-10-19T20:28:51.602Z,9.34
2022-10-19T20:31:05.768Z,9.29
2022-10-19T20:33:07.211Z,9.26
2022-10-19T20:35:09.066Z,9.26
2022-10-19T20:37:10.502Z,9.26
2022-10-19T20:39:11.949Z,9.24
2022-10-19T20:41:13.438Z,9.24
2022-10-19T20:43:15.266Z,9.22
2022-10-19T20:45:16.774Z,9.22
2022-10-19T20:47:18.207Z,9.22
2022-10-19T20:49:19.664Z,9.22
2022-10-19T20:51:31.694Z,9.21
2022-10-19T20:53:33.891Z,9.18
2022-10-19T20:55:35.345Z,9.17
2022-10-19T20:57:36.785Z,9.15
2022-10-19T20:59:39.542Z,9.13
2022-10-19T21:01:42.404Z,9.15
2022-10-19T21:03:49.850Z,9.17
2022-10-19T21:05:51.284Z,9.12
2022-10-19T21:07:53.160Z,9.12
2022-10-19T21:09:54.677Z,9.13
2022-10-19T21:11:56.188Z,9.12
2022-10-19T21:14:01.764Z,9.15
2022-10-19T21:16:17.638Z,9.13
2022-10-19T21:18:19.140Z,9.11
2022-10-19T21:20:20.564Z,9.11
2022-10-19T21:22:22.026Z,9.10
2022-10-19T21:24:26.691Z,9.09
2022-10-19T21:26:28.628Z,9.06
2022-10-19T21:28:30.041Z,9.04
2022-10-19T21:30:31.461Z,9.03
2022-10-19T21:32:33.053Z,9.03
2022-10-19T21:34:34.476Z,9.03
2022-10-19T21:36:35.939Z,9.01
2022-10-19T21:38:37.714Z,9.00
2022-10-19T21:40:39.122Z,8.99
2022-10-19T21:42:40.544Z,8.99
2022-10-19T21:44:41.953Z,8.99
2022-10-19T21:46:44.413Z,8.98
2022-10-19T21:48:46.192Z,8.95
2022-10-19T21:50:48.303Z,8.95
2022-10-19T21:52:49.720Z,8.94
2022-10-19T21:54:51.193Z,8.93
2022-10-19T21:56:53.395Z,8.93
2022-10-19T21:58:55.447Z,8.93
2022-10-19T22:01:07.031Z,8.90
2022-10-19T22:03:09.393Z,8.88
2022-10-19T22:05:10.820Z,8.85
2022-10-19T22:07:12.260Z,8.82
2022-10-19T22:09:20.484Z,8.80
2022-10-19T22:11:22.500Z,8.79
2022-10-19T22:13:23.958Z,8.78
2022-10-19T22:15:25.396Z,8.78
2022-10-19T22:17:26.821Z,8.78
2022-10-19T22:19:28.280Z,8.77
2022-10-19T22:21:31.755Z,8.76
2022-10-19T22:23:33.220Z,8.75
2022-10-19T22:25:35.825Z,8.74
2022-10-19T22:27:37.248Z,8.72
2022-10-19T22:29:38.702Z,8.71
2022-10-19T22:31:40.204Z,8.71
2022-10-19T22:33:41.683Z,8.70
2022-10-19T22:35:43.146Z,8.69
2022-10-19T22:37:44.585Z,8.65
2022-10-19T22:39:46.060Z,8.63
2022-10-19T22:41:47.740Z,8.60
2022-10-19T22:43:49.178Z,8.56
2022-10-19T22:45:50.799Z,8.57
2022-10-19T22:47:52.247Z,8.52
2022-10-19T22:49:53.687Z,8.50
2022-10-19T22:51:55.092Z,8.48
2022-10-19T22:53:56.530Z,8.48
2022-10-19T22:55:57.956Z,8.46
2022-10-19T22:57:59.459Z,8.45
2022-10-19T23:00:00.905Z,8.44
2022-10-19T23:02:02.381Z,8.43
2022-10-19T23:04:04.059Z,8.44
2022-10-19T23:06:09.510Z,8.44
2022-10-19T23:08:10.941Z,8.43
2022-10-19T23:10:12.704Z,8.40
2022-10-19T23:12:14.172Z,8.38
2022-10-19T23:14:15.902Z,8.34
2022-10-19T23:16:17.472Z,8.30
2022-10-19T23:18:19.548Z,8.28
2022-10-19T23:20:20.981Z,8.25
2022-10-19T23:22:22.517Z,8.26
2022-10-19T23:24:24.286Z,8.25
2022-10-19T23:26:25.805Z,8.24
2022-10-19T23:28:27.891Z,8.23
2022-10-19T23:30:29.300Z,8.20
2022-10-19T23:32:30.883Z,8.17
2022-10-19T23:34:32.434Z,8.13
2022-10-19T23:36:33.897Z,8.09
2022-10-19T23:38:36.200Z,8.06
2022-10-19T23:40:37.607Z,8.05
2022-10-19T23:42:39.092Z,8.04
2022-10-19T23:44:40.568Z,8.05
2022-10-19T23:46:42.050Z,8.05
2022-10-19T23:48:46.563Z,8.07
2022-10-19T23:51:03.579Z,8.04
2022-10-19T23:53:05.018Z,8.02
2022-10-19T23:55:07.181Z,7.99
2022-10-19T23:57:08.600Z,7.98
2022-10-19T23:59:10.021Z,7.94
